Aviation Digital Data Service (ADDS)

Output produced by METARs form (1637 UTC 03 December 2021)
found at http://www.aviationweather.gov/metar/data/
 
METAR text: LSZA 031620Z VRB02KT CAVOK 05/M07 Q1013 NOSIG
Conditions at: LSZA (LUGANO (PVT/AUT), CH) observed 1620 UTC 03 December 2021
Temperature: 5.0°C (41°F)
Dewpoint: -7.0°C (19°F) [RH = 41%]
Pressure (altimeter): 29.91 inches Hg (1013.0 mb)
Winds: variable direction winds at 2 MPH (2 knots; 1.0 m/s)
Visibility: 6 or more miles (10+ km)
Ceiling: ceiling and visibility are OK
Clouds: unknown
Weather: no significant weather observed at this time

METAR text: LSZA 031550Z VRB02KT CAVOK 07/M07 Q1012 NOSIG
Conditions at: LSZA (LUGANO (PVT/AUT), CH) observed 1550 UTC 03 December 2021
Temperature: 7.0°C (45°F)
Dewpoint: -7.0°C (19°F) [RH = 36%]
Pressure (altimeter): 29.88 inches Hg (1012.0 mb)
Winds: variable direction winds at 2 MPH (2 knots; 1.0 m/s)
Visibility: 6 or more miles (10+ km)
Ceiling: ceiling and visibility are OK
Clouds: unknown
Weather: no significant weather observed at this time

METAR text: LSZA 031520Z VRB03KT CAVOK 08/M07 Q1012 NOSIG
Conditions at: LSZA (LUGANO (PVT/AUT), CH) observed 1520 UTC 03 December 2021
Temperature: 8.0°C (46°F)
Dewpoint: -7.0°C (19°F) [RH = 34%]
Pressure (altimeter): 29.88 inches Hg (1012.0 mb)
Winds: variable direction winds at 3 MPH (3 knots; 1.5 m/s)
Visibility: 6 or more miles (10+ km)
Ceiling: ceiling and visibility are OK
Clouds: unknown
Weather: no significant weather observed at this time

METAR text: LSZA 031450Z 34006KT 300V010 CAVOK 08/M11 Q1012 NOSIG
Conditions at: LSZA (LUGANO (PVT/AUT), CH) observed 1450 UTC 03 December 2021
Temperature: 8.0°C (46°F)
Dewpoint: -11.0°C (12°F) [RH = 25%]
Pressure (altimeter): 29.88 inches Hg (1012.0 mb)
Winds: from the NNW (340 degrees) at 7 MPH (6 knots; 3.1 m/s)
Visibility: 6 or more miles (10+ km)
Ceiling: ceiling and visibility are OK
Clouds: unknown
Weather: no significant weather observed at this time

METAR text: LSZA 031420Z 34006KT 320V030 CAVOK 09/M12 Q1011 NOSIG
Conditions at: LSZA (LUGANO (PVT/AUT), CH) observed 1420 UTC 03 December 2021
Temperature: 9.0°C (48°F)
Dewpoint: -12.0°C (10°F) [RH = 21%]
Pressure (altimeter): 29.85 inches Hg (1011.0 mb)
Winds: from the NNW (340 degrees) at 7 MPH (6 knots; 3.1 m/s)
Visibility: 6 or more miles (10+ km)
Ceiling: ceiling and visibility are OK
Clouds: unknown
Weather: no significant weather observed at this time

METAR text: LSZA 031350Z 36008KT CAVOK 10/M13 Q1011 NOSIG
Conditions at: LSZA (LUGANO (PVT/AUT), CH) observed 1350 UTC 03 December 2021
Temperature: 10.0°C (50°F)
Dewpoint: -13.0°C ( 9°F) [RH = 18%]
Pressure (altimeter): 29.85 inches Hg (1011.0 mb)
Winds: from the N (360 degrees) at 9 MPH (8 knots; 4.1 m/s)
Visibility: 6 or more miles (10+ km)
Ceiling: ceiling and visibility are OK
Clouds: unknown
Weather: no significant weather observed at this time

Forecast for: LSZA (LUGANO (PVT/AUT), CH)
Text: TAF LSZA 031425Z 0315/0324 VRB02KT CAVOK
Forecast period: 1500 UTC 03 December 2021 to 0000 UTC 04 December 2021
Forecast type: FROM: standard forecast or significant change
Winds: variable direction winds at 2 MPH (2 knots; 1.0 m/s)
Visibility: 6 or more miles (10+ km)
Ceiling: unknown
Clouds: missing
Weather: NSW  (no significant weather)